sensor_id;sensor_type;location;lat;lon;timestamp;temperature;humidity
49511;DHT22;35413;48.776;9.204;2022-09-24T00:01:59;22.30;51.10
49511;DHT22;35413;48.776;9.204;2022-09-24T00:04:26;22.30;51.10
49511;DHT22;35413;48.776;9.204;2022-09-24T00:06:52;22.20;51.00
49511;DHT22;35413;48.776;9.204;2022-09-24T00:09:20;22.20;51.10
49511;DHT22;35413;48.776;9.204;2022-09-24T00:11:47;22.20;51.10
49511;DHT22;35413;48.776;9.204;2022-09-24T00:14:14;22.20;51.70
49511;DHT22;35413;48.776;9.204;2022-09-24T00:16:41;22.20;51.10
49511;DHT22;35413;48.776;9.204;2022-09-24T00:19:08;22.20;51.10
49511;DHT22;35413;48.776;9.204;2022-09-24T00:21:36;22.20;51.10
49511;DHT22;35413;48.776;9.204;2022-09-24T00:24:05;22.20;51.10
49511;DHT22;35413;48.776;9.204;2022-09-24T00:26:31;22.20;51.10
49511;DHT22;35413;48.776;9.204;2022-09-24T00:29:20;22.20;51.10
49511;DHT22;35413;48.776;9.204;2022-09-24T00:31:46;22.20;51.10
49511;DHT22;35413;48.776;9.204;2022-09-24T00:34:12;22.20;51.10
49511;DHT22;35413;48.776;9.204;2022-09-24T00:36:37;22.20;51.10
49511;DHT22;35413;48.776;9.204;2022-09-24T00:39:04;22.20;51.10
49511;DHT22;35413;48.776;9.204;2022-09-24T00:41:31;22.20;51.10
49511;DHT22;35413;48.776;9.204;2022-09-24T00:43:59;22.20;51.10
49511;DHT22;35413;48.776;9.204;2022-09-24T00:46:37;22.20;51.20
49511;DHT22;35413;48.776;9.204;2022-09-24T00:49:15;22.20;51.10
49511;DHT22;35413;48.776;9.204;2022-09-24T00:51:44;22.20;51.10
49511;DHT22;35413;48.776;9.204;2022-09-24T00:54:15;22.20;51.10
49511;DHT22;35413;48.776;9.204;2022-09-24T00:56:42;22.20;51.10
49511;DHT22;35413;48.776;9.204;2022-09-24T00:59:10;22.20;51.10
49511;DHT22;35413;48.776;9.204;2022-09-24T01:01:38;22.20;51.10
49511;DHT22;35413;48.776;9.204;2022-09-24T01:04:05;22.20;51.10
49511;DHT22;35413;48.776;9.204;2022-09-24T01:06:31;22.20;51.10
49511;DHT22;35413;48.776;9.204;2022-09-24T01:08:57;22.20;51.20
49511;DHT22;35413;48.776;9.204;2022-09-24T01:17:24;22.20;51.20
49511;DHT22;35413;48.776;9.204;2022-09-24T01:28:55;22.20;51.20
49511;DHT22;35413;48.776;9.204;2022-09-24T01:31:39;22.20;51.20
49511;DHT22;35413;48.776;9.204;2022-09-24T01:34:08;22.20;51.20
49511;DHT22;35413;48.776;9.204;2022-09-24T01:36:40;22.20;51.20
49511;DHT22;35413;48.776;9.204;2022-09-24T01:39:07;22.20;51.20
49511;DHT22;35413;48.776;9.204;2022-09-24T01:41:35;22.20;51.20
49511;DHT22;35413;48.776;9.204;2022-09-24T01:44:02;22.20;51.20
49511;DHT22;35413;48.776;9.204;2022-09-24T01:46:31;22.20;51.20
49511;DHT22;35413;48.776;9.204;2022-09-24T01:48:56;22.20;51.20
49511;DHT22;35413;48.776;9.204;2022-09-24T01:51:42;22.10;51.20
49511;DHT22;35413;48.776;9.204;2022-09-24T01:54:25;22.20;51.20
49511;DHT22;35413;48.776;9.204;2022-09-24T01:57:14;22.20;51.20
49511;DHT22;35413;48.776;9.204;2022-09-24T01:59:56;22.20;51.20
49511;DHT22;35413;48.776;9.204;2022-09-24T02:03:02;22.20;51.20
49511;DHT22;35413;48.776;9.204;2022-09-24T02:05:33;22.20;51.20
49511;DHT22;35413;48.776;9.204;2022-09-24T02:08:07;22.20;51.20
49511;DHT22;35413;48.776;9.204;2022-09-24T02:10:42;22.20;51.20
49511;DHT22;35413;48.776;9.204;2022-09-24T02:13:11;22.20;51.20
49511;DHT22;35413;48.776;9.204;2022-09-24T02:15:41;22.20;51.20
49511;DHT22;35413;48.776;9.204;2022-09-24T02:18:12;22.20;51.20
49511;DHT22;35413;48.776;9.204;2022-09-24T02:20:42;22.20;51.20
49511;DHT22;35413;48.776;9.204;2022-09-24T02:23:09;22.20;51.20
49511;DHT22;35413;48.776;9.204;2022-09-24T02:25:52;22.20;51.20
49511;DHT22;35413;48.776;9.204;2022-09-24T02:28:19;22.20;51.20
49511;DHT22;35413;48.776;9.204;2022-09-24T02:31:05;22.20;51.20
49511;DHT22;35413;48.776;9.204;2022-09-24T02:33:34;22.20;51.30
49511;DHT22;35413;48.776;9.204;2022-09-24T02:36:19;22.20;51.20
49511;DHT22;35413;48.776;9.204;2022-09-24T02:38:44;22.20;51.20
49511;DHT22;35413;48.776;9.204;2022-09-24T02:41:13;22.20;51.20
49511;DHT22;35413;48.776;9.204;2022-09-24T02:43:39;22.20;51.20
49511;DHT22;35413;48.776;9.204;2022-09-24T02:46:06;22.20;51.30
49511;DHT22;35413;48.776;9.204;2022-09-24T02:48:37;22.20;51.20
49511;DHT22;35413;48.776;9.204;2022-09-24T02:51:03;22.20;51.20
49511;DHT22;35413;48.776;9.204;2022-09-24T02:53:30;22.10;51.20
49511;DHT22;35413;48.776;9.204;2022-09-24T02:55:56;22.20;51.30
49511;DHT22;35413;48.776;9.204;2022-09-24T02:58:23;22.20;51.40
49511;DHT22;35413;48.776;9.204;2022-09-24T03:00:49;22.20;51.20
49511;DHT22;35413;48.776;9.204;2022-09-24T03:03:15;22.20;51.40
49511;DHT22;35413;48.776;9.204;2022-09-24T03:05:40;22.20;51.40
49511;DHT22;35413;48.776;9.204;2022-09-24T03:08:06;22.20;51.40
49511;DHT22;35413;48.776;9.204;2022-09-24T03:10:32;22.20;51.30
49511;DHT22;35413;48.776;9.204;2022-09-24T03:12:58;22.20;51.40
49511;DHT22;35413;48.776;9.204;2022-09-24T03:15:24;22.10;51.40
49511;DHT22;35413;48.776;9.204;2022-09-24T03:17:50;22.20;51.40
49511;DHT22;35413;48.776;9.204;2022-09-24T03:20:15;22.10;51.40
49511;DHT22;35413;48.776;9.204;2022-09-24T03:22:41;22.10;51.40
49511;DHT22;35413;48.776;9.204;2022-09-24T03:25:08;22.10;51.40
49511;DHT22;35413;48.776;9.204;2022-09-24T03:27:35;22.10;51.40
49511;DHT22;35413;48.776;9.204;2022-09-24T03:30:00;22.10;51.40
49511;DHT22;35413;48.776;9.204;2022-09-24T03:32:47;22.20;51.50
49511;DHT22;35413;48.776;9.204;2022-09-24T03:35:12;22.10;51.40
49511;DHT22;35413;48.776;9.204;2022-09-24T03:37:40;22.10;51.40
49511;DHT22;35413;48.776;9.204;2022-09-24T03:40:07;22.10;51.40
49511;DHT22;35413;48.776;9.204;2022-09-24T03:42:33;22.10;51.40
49511;DHT22;35413;48.776;9.204;2022-09-24T03:44:59;22.10;51.50
49511;DHT22;35413;48.776;9.204;2022-09-24T03:47:24;22.10;51.40
49511;DHT22;35413;48.776;9.204;2022-09-24T03:49:50;22.10;51.40
49511;DHT22;35413;48.776;9.204;2022-09-24T03:52:15;22.10;52.10
49511;DHT22;35413;48.776;9.204;2022-09-24T03:54:41;22.10;51.40
49511;DHT22;35413;48.776;9.204;2022-09-24T03:57:07;22.10;51.40
49511;DHT22;35413;48.776;9.204;2022-09-24T03:59:33;22.10;51.40
49511;DHT22;35413;48.776;9.204;2022-09-24T04:01:58;22.10;51.40
49511;DHT22;35413;48.776;9.204;2022-09-24T04:04:24;22.10;51.40
49511;DHT22;35413;48.776;9.204;2022-09-24T04:06:49;22.10;51.40
49511;DHT22;35413;48.776;9.204;2022-09-24T04:09:17;22.10;51.40
49511;DHT22;35413;48.776;9.204;2022-09-24T04:11:42;22.10;51.40
49511;DHT22;35413;48.776;9.204;2022-09-24T04:14:09;22.10;51.40
49511;DHT22;35413;48.776;9.204;2022-09-24T04:16:34;22.10;51.40
49511;DHT22;35413;48.776;9.204;2022-09-24T04:19:00;22.10;51.40
49511;DHT22;35413;48.776;9.204;2022-09-24T04:21:26;22.10;51.50
49511;DHT22;35413;48.776;9.204;2022-09-24T04:23:52;22.10;51.40
49511;DHT22;35413;48.776;9.204;2022-09-24T04:26:17;22.10;51.40
49511;DHT22;35413;48.776;9.204;2022-09-24T04:28:43;22.10;51.40
49511;DHT22;35413;48.776;9.204;2022-09-24T04:31:08;22.10;51.40
49511;DHT22;35413;48.776;9.204;2022-09-24T04:33:34;22.10;51.50
49511;DHT22;35413;48.776;9.204;2022-09-24T04:35:59;22.10;51.40
49511;DHT22;35413;48.776;9.204;2022-09-24T04:38:25;22.10;51.40
49511;DHT22;35413;48.776;9.204;2022-09-24T04:40:51;22.10;51.40
49511;DHT22;35413;48.776;9.204;2022-09-24T04:43:17;22.10;51.50
49511;DHT22;35413;48.776;9.204;2022-09-24T04:45:43;22.10;51.40
49511;DHT22;35413;48.776;9.204;2022-09-24T04:48:10;22.10;51.40
49511;DHT22;35413;48.776;9.204;2022-09-24T04:50:36;22.10;51.50
49511;DHT22;35413;48.776;9.204;2022-09-24T04:53:03;22.10;51.50
49511;DHT22;35413;48.776;9.204;2022-09-24T04:55:29;22.10;51.50
49511;DHT22;35413;48.776;9.204;2022-09-24T04:57:56;22.10;51.50
49511;DHT22;35413;48.776;9.204;2022-09-24T05:00:22;22.10;51.50
49511;DHT22;35413;48.776;9.204;2022-09-24T05:02:55;22.10;51.40
49511;DHT22;35413;48.776;9.204;2022-09-24T05:05:22;22.10;51.50
49511;DHT22;35413;48.776;9.204;2022-09-24T05:07:47;22.10;51.50
49511;DHT22;35413;48.776;9.204;2022-09-24T05:10:13;22.10;51.50
49511;DHT22;35413;48.776;9.204;2022-09-24T05:12:39;22.10;51.50
49511;DHT22;35413;48.776;9.204;2022-09-24T05:15:05;22.10;51.50
49511;DHT22;35413;48.776;9.204;2022-09-24T05:17:31;22.10;51.40
49511;DHT22;35413;48.776;9.204;2022-09-24T05:19:57;22.10;51.50
49511;DHT22;35413;48.776;9.204;2022-09-24T05:22:27;22.10;51.50
49511;DHT22;35413;48.776;9.204;2022-09-24T05:24:52;22.10;51.50
49511;DHT22;35413;48.776;9.204;2022-09-24T05:27:19;22.10;51.50
49511;DHT22;35413;48.776;9.204;2022-09-24T05:29:46;22.10;51.50
49511;DHT22;35413;48.776;9.204;2022-09-24T05:32:14;22.10;51.50
49511;DHT22;35413;48.776;9.204;2022-09-24T05:34:42;22.10;51.50
49511;DHT22;35413;48.776;9.204;2022-09-24T05:37:08;22.10;51.50
49511;DHT22;35413;48.776;9.204;2022-09-24T05:39:34;22.10;51.50
49511;DHT22;35413;48.776;9.204;2022-09-24T05:41:59;22.10;51.60
49511;DHT22;35413;48.776;9.204;2022-09-24T05:44:27;22.10;52.10
49511;DHT22;35413;48.776;9.204;2022-09-24T05:46:54;22.10;52.10
49511;DHT22;35413;48.776;9.204;2022-09-24T05:49:19;22.20;52.30
49511;DHT22;35413;48.776;9.204;2022-09-24T05:51:47;22.20;52.30
49511;DHT22;35413;48.776;9.204;2022-09-24T05:54:13;22.20;52.30
49511;DHT22;35413;48.776;9.204;2022-09-24T05:56:39;22.20;52.30
49511;DHT22;35413;48.776;9.204;2022-09-24T05:59:04;22.20;52.40
49511;DHT22;35413;48.776;9.204;2022-09-24T06:01:30;22.20;52.30
49511;DHT22;35413;48.776;9.204;2022-09-24T06:03:56;22.20;51.80
49511;DHT22;35413;48.776;9.204;2022-09-24T06:06:23;22.20;50.90
49511;DHT22;35413;48.776;9.204;2022-09-24T06:08:49;22.20;50.60
49511;DHT22;35413;48.776;9.204;2022-09-24T06:11:14;22.10;50.40
49511;DHT22;35413;48.776;9.204;2022-09-24T06:13:40;22.10;50.40
49511;DHT22;35413;48.776;9.204;2022-09-24T06:16:07;22.10;50.30
49511;DHT22;35413;48.776;9.204;2022-09-24T06:18:37;22.10;50.30
49511;DHT22;35413;48.776;9.204;2022-09-24T06:21:09;22.00;50.20
49511;DHT22;35413;48.776;9.204;2022-09-24T06:23:35;22.00;50.20
49511;DHT22;35413;48.776;9.204;2022-09-24T06:26:02;22.00;50.10
49511;DHT22;35413;48.776;9.204;2022-09-24T06:28:27;22.00;50.10
49511;DHT22;35413;48.776;9.204;2022-09-24T06:30:53;22.00;50.10
49511;DHT22;35413;48.776;9.204;2022-09-24T06:33:19;22.00;50.10
49511;DHT22;35413;48.776;9.204;2022-09-24T06:35:45;22.00;50.10
49511;DHT22;35413;48.776;9.204;2022-09-24T06:38:14;22.00;50.00
49511;DHT22;35413;48.776;9.204;2022-09-24T06:40:42;22.00;50.00
49511;DHT22;35413;48.776;9.204;2022-09-24T06:43:10;22.00;50.00
49511;DHT22;35413;48.776;9.204;2022-09-24T06:45:37;22.00;50.20
49511;DHT22;35413;48.776;9.204;2022-09-24T06:48:04;21.80;50.10
49511;DHT22;35413;48.776;9.204;2022-09-24T06:50:32;21.70;50.30
49511;DHT22;35413;48.776;9.204;2022-09-24T06:52:58;21.60;50.70
49511;DHT22;35413;48.776;9.204;2022-09-24T06:55:24;21.50;51.00
49511;DHT22;35413;48.776;9.204;2022-09-24T06:57:50;21.50;51.20
49511;DHT22;35413;48.776;9.204;2022-09-24T07:00:25;21.60;50.70
49511;DHT22;35413;48.776;9.204;2022-09-24T07:02:50;21.80;50.40
49511;DHT22;35413;48.776;9.204;2022-09-24T07:05:16;22.00;50.50
49511;DHT22;35413;48.776;9.204;2022-09-24T07:07:42;22.00;50.70
49511;DHT22;35413;48.776;9.204;2022-09-24T07:10:08;22.10;50.80
49511;DHT22;35413;48.776;9.204;2022-09-24T07:12:35;22.20;50.80
49511;DHT22;35413;48.776;9.204;2022-09-24T07:15:01;22.20;50.80
49511;DHT22;35413;48.776;9.204;2022-09-24T07:17:27;22.20;50.80
49511;DHT22;35413;48.776;9.204;2022-09-24T07:19:53;22.30;50.90
49511;DHT22;35413;48.776;9.204;2022-09-24T07:22:20;22.20;51.00
49511;DHT22;35413;48.776;9.204;2022-09-24T07:24:49;22.30;51.20
49511;DHT22;35413;48.776;9.204;2022-09-24T07:27:15;22.30;51.20
49511;DHT22;35413;48.776;9.204;2022-09-24T07:29:41;22.30;51.20
49511;DHT22;35413;48.776;9.204;2022-09-24T07:32:07;22.30;51.20
49511;DHT22;35413;48.776;9.204;2022-09-24T07:34:32;22.30;51.30
49511;DHT22;35413;48.776;9.204;2022-09-24T07:36:58;22.30;51.30
49511;DHT22;35413;48.776;9.204;2022-09-24T07:39:24;22.20;51.50
49511;DHT22;35413;48.776;9.204;2022-09-24T07:41:51;22.30;51.80
49511;DHT22;35413;48.776;9.204;2022-09-24T07:44:20;22.30;52.20
49511;DHT22;35413;48.776;9.204;2022-09-24T07:46:51;22.40;52.10
49511;DHT22;35413;48.776;9.204;2022-09-24T07:49:17;22.40;51.90
49511;DHT22;35413;48.776;9.204;2022-09-24T07:51:42;22.50;52.00
49511;DHT22;35413;48.776;9.204;2022-09-24T07:54:08;22.50;52.00
49511;DHT22;35413;48.776;9.204;2022-09-24T07:56:35;22.60;52.20
49511;DHT22;35413;48.776;9.204;2022-09-24T07:59:00;22.60;52.60
49511;DHT22;35413;48.776;9.204;2022-09-24T08:01:26;22.60;53.20
49511;DHT22;35413;48.776;9.204;2022-09-24T08:03:52;22.60;54.10
49511;DHT22;35413;48.776;9.204;2022-09-24T08:06:19;22.60;53.50
49511;DHT22;35413;48.776;9.204;2022-09-24T08:08:48;22.60;53.20
49511;DHT22;35413;48.776;9.204;2022-09-24T08:11:14;22.60;53.40
49511;DHT22;35413;48.776;9.204;2022-09-24T08:13:41;22.60;53.90
49511;DHT22;35413;48.776;9.204;2022-09-24T08:16:07;22.60;54.00
49511;DHT22;35413;48.776;9.204;2022-09-24T08:18:33;22.60;53.90
49511;DHT22;35413;48.776;9.204;2022-09-24T08:21:03;22.60;53.80
49511;DHT22;35413;48.776;9.204;2022-09-24T08:23:28;22.60;53.80
49511;DHT22;35413;48.776;9.204;2022-09-24T08:25:56;22.60;53.90
49511;DHT22;35413;48.776;9.204;2022-09-24T08:28:21;22.70;54.10
49511;DHT22;35413;48.776;9.204;2022-09-24T08:30:47;22.70;54.30
49511;DHT22;35413;48.776;9.204;2022-09-24T08:33:13;22.70;54.30
49511;DHT22;35413;48.776;9.204;2022-09-24T08:35:39;22.70;54.20
49511;DHT22;35413;48.776;9.204;2022-09-24T08:38:05;22.70;54.70
49511;DHT22;35413;48.776;9.204;2022-09-24T08:40:36;22.70;56.00
49511;DHT22;35413;48.776;9.204;2022-09-24T08:45:56;22.90;56.70
49511;DHT22;35413;48.776;9.204;2022-09-24T08:48:46;22.90;54.90
49511;DHT22;35413;48.776;9.204;2022-09-24T08:51:17;22.80;54.50
49511;DHT22;35413;48.776;9.204;2022-09-24T08:56:26;22.80;54.60
49511;DHT22;35413;48.776;9.204;2022-09-24T08:58:59;22.80;54.40
49511;DHT22;35413;48.776;9.204;2022-09-24T09:04:32;22.80;54.70
49511;DHT22;35413;48.776;9.204;2022-09-24T09:07:18;22.80;54.80
49511;DHT22;35413;48.776;9.204;2022-09-24T09:10:00;22.80;54.70
49511;DHT22;35413;48.776;9.204;2022-09-24T09:12:34;23.00;54.70
49511;DHT22;35413;48.776;9.204;2022-09-24T09:15:18;23.10;54.30
49511;DHT22;35413;48.776;9.204;2022-09-24T09:18:13;23.10;53.90
49511;DHT22;35413;48.776;9.204;2022-09-24T09:20:42;23.10;54.10
49511;DHT22;35413;48.776;9.204;2022-09-24T09:23:23;23.00;54.30
49511;DHT22;35413;48.776;9.204;2022-09-24T09:25:57;23.00;54.40
49511;DHT22;35413;48.776;9.204;2022-09-24T09:28:25;23.00;54.50
49511;DHT22;35413;48.776;9.204;2022-09-24T09:34:32;22.90;54.70
49511;DHT22;35413;48.776;9.204;2022-09-24T09:42:35;22.80;55.40
49511;DHT22;35413;48.776;9.204;2022-09-24T09:45:19;22.80;56.10
49511;DHT22;35413;48.776;9.204;2022-09-24T09:47:49;22.80;56.50
49511;DHT22;35413;48.776;9.204;2022-09-24T09:53:03;22.80;55.70
49511;DHT22;35413;48.776;9.204;2022-09-24T09:55:35;22.80;55.60
49511;DHT22;35413;48.776;9.204;2022-09-24T09:58:23;22.80;55.80
49511;DHT22;35413;48.776;9.204;2022-09-24T10:00:49;22.80;56.40
49511;DHT22;35413;48.776;9.204;2022-09-24T10:03:33;22.80;56.10
49511;DHT22;35413;48.776;9.204;2022-09-24T10:06:05;22.80;55.80
49511;DHT22;35413;48.776;9.204;2022-09-24T10:08:31;22.80;55.80
49511;DHT22;35413;48.776;9.204;2022-09-24T10:10:59;22.80;56.50
49511;DHT22;35413;48.776;9.204;2022-09-24T10:13:25;22.70;56.90
49511;DHT22;35413;48.776;9.204;2022-09-24T10:16:03;22.70;57.10
49511;DHT22;35413;48.776;9.204;2022-09-24T10:21:01;22.60;57.30
49511;DHT22;35413;48.776;9.204;2022-09-24T10:23:34;22.60;57.20
49511;DHT22;35413;48.776;9.204;2022-09-24T10:26:01;22.60;57.80
49511;DHT22;35413;48.776;9.204;2022-09-24T10:28:27;22.60;57.00
49511;DHT22;35413;48.776;9.204;2022-09-24T10:31:19;22.60;57.00
49511;DHT22;35413;48.776;9.204;2022-09-24T10:33:48;22.60;57.20
49511;DHT22;35413;48.776;9.204;2022-09-24T10:36:21;22.60;57.00
49511;DHT22;35413;48.776;9.204;2022-09-24T10:38:48;22.60;59.40
49511;DHT22;35413;48.776;9.204;2022-09-24T10:41:26;22.60;57.90
49511;DHT22;35413;48.776;9.204;2022-09-24T10:43:53;22.70;57.40
49511;DHT22;35413;48.776;9.204;2022-09-24T10:46:38;22.70;57.50
49511;DHT22;35413;48.776;9.204;2022-09-24T11:00:23;22.80;57.30
49511;DHT22;35413;48.776;9.204;2022-09-24T11:05:29;22.90;57.20
49511;DHT22;35413;48.776;9.204;2022-09-24T11:18:35;22.90;56.80
49511;DHT22;35413;48.776;9.204;2022-09-24T11:21:30;22.80;56.80
49511;DHT22;35413;48.776;9.204;2022-09-24T11:26:36;22.90;56.80
49511;DHT22;35413;48.776;9.204;2022-09-24T11:29:47;22.90;56.80
49511;DHT22;35413;48.776;9.204;2022-09-24T11:32:32;22.90;57.00
49511;DHT22;35413;48.776;9.204;2022-09-24T11:38:22;23.00;56.70
49511;DHT22;35413;48.776;9.204;2022-09-24T11:52:23;23.10;56.20
49511;DHT22;35413;48.776;9.204;2022-09-24T11:55:16;23.10;56.20
49511;DHT22;35413;48.776;9.204;2022-09-24T11:57:45;23.10;56.50
49511;DHT22;35413;48.776;9.204;2022-09-24T12:00:15;23.10;56.40
49511;DHT22;35413;48.776;9.204;2022-09-24T12:03:00;23.00;56.70
49511;DHT22;35413;48.776;9.204;2022-09-24T12:05:51;23.00;57.00
49511;DHT22;35413;48.776;9.204;2022-09-24T12:08:41;23.00;56.60
49511;DHT22;35413;48.776;9.204;2022-09-24T12:11:19;23.00;56.60
49511;DHT22;35413;48.776;9.204;2022-09-24T12:13:51;23.00;56.50
49511;DHT22;35413;48.776;9.204;2022-09-24T12:16:27;23.00;56.50
49511;DHT22;35413;48.776;9.204;2022-09-24T12:19:23;23.00;57.90
49511;DHT22;35413;48.776;9.204;2022-09-24T12:21:51;23.00;56.50
49511;DHT22;35413;48.776;9.204;2022-09-24T12:24:52;23.00;56.60
49511;DHT22;35413;48.776;9.204;2022-09-24T12:27:39;23.00;56.70
49511;DHT22;35413;48.776;9.204;2022-09-24T12:30:27;23.10;56.80
49511;DHT22;35413;48.776;9.204;2022-09-24T12:36:56;23.20;57.90
49511;DHT22;35413;48.776;9.204;2022-09-24T12:42:15;23.10;57.10
49511;DHT22;35413;48.776;9.204;2022-09-24T12:44:45;23.20;57.40
49511;DHT22;35413;48.776;9.204;2022-09-24T12:47:20;23.20;57.30
49511;DHT22;35413;48.776;9.204;2022-09-24T12:50:02;23.10;57.00
49511;DHT22;35413;48.776;9.204;2022-09-24T12:52:41;23.10;57.30
49511;DHT22;35413;48.776;9.204;2022-09-24T12:55:28;23.00;57.00
49511;DHT22;35413;48.776;9.204;2022-09-24T12:57:55;23.00;57.20
49511;DHT22;35413;48.776;9.204;2022-09-24T13:00:41;22.90;57.00
49511;DHT22;35413;48.776;9.204;2022-09-24T13:05:55;22.80;57.10
49511;DHT22;35413;48.776;9.204;2022-09-24T13:08:26;22.80;57.30
49511;DHT22;35413;48.776;9.204;2022-09-24T13:11:01;22.80;57.30
49511;DHT22;35413;48.776;9.204;2022-09-24T13:13:34;22.70;57.40
49511;DHT22;35413;48.776;9.204;2022-09-24T13:16:06;22.70;57.40
49511;DHT22;35413;48.776;9.204;2022-09-24T13:18:35;22.70;57.40
49511;DHT22;35413;48.776;9.204;2022-09-24T13:21:16;22.70;57.40
49511;DHT22;35413;48.776;9.204;2022-09-24T13:23:47;22.70;57.50
49511;DHT22;35413;48.776;9.204;2022-09-24T13:39:26;22.60;57.50
49511;DHT22;35413;48.776;9.204;2022-09-24T13:44:53;22.60;57.40
49511;DHT22;35413;48.776;9.204;2022-09-24T13:47:43;22.60;57.40
49511;DHT22;35413;48.776;9.204;2022-09-24T13:50:17;22.60;57.40
49511;DHT22;35413;48.776;9.204;2022-09-24T13:52:58;22.50;57.40
49511;DHT22;35413;48.776;9.204;2022-09-24T13:55:37;22.60;57.40
49511;DHT22;35413;48.776;9.204;2022-09-24T13:58:04;22.50;57.40
49511;DHT22;35413;48.776;9.204;2022-09-24T14:00:30;22.50;57.40
49511;DHT22;35413;48.776;9.204;2022-09-24T14:03:02;22.50;57.40
49511;DHT22;35413;48.776;9.204;2022-09-24T14:05:33;22.50;57.40
49511;DHT22;35413;48.776;9.204;2022-09-24T14:08:09;22.50;57.40
49511;DHT22;35413;48.776;9.204;2022-09-24T14:10:37;22.50;57.30
49511;DHT22;35413;48.776;9.204;2022-09-24T14:13:25;22.50;57.30
49511;DHT22;35413;48.776;9.204;2022-09-24T14:15:56;22.50;57.40
49511;DHT22;35413;48.776;9.204;2022-09-24T14:18:24;22.50;57.30
49511;DHT22;35413;48.776;9.204;2022-09-24T14:21:10;22.50;57.40
49511;DHT22;35413;48.776;9.204;2022-09-24T14:23:56;22.50;57.40
49511;DHT22;35413;48.776;9.204;2022-09-24T14:26:31;22.50;57.40
49511;DHT22;35413;48.776;9.204;2022-09-24T14:29:02;22.50;57.30
49511;DHT22;35413;48.776;9.204;2022-09-24T14:31:28;22.50;57.40
49511;DHT22;35413;48.776;9.204;2022-09-24T14:33:54;22.50;57.40
49511;DHT22;35413;48.776;9.204;2022-09-24T14:36:20;22.50;57.30
49511;DHT22;35413;48.776;9.204;2022-09-24T14:39:02;22.50;57.40
49511;DHT22;35413;48.776;9.204;2022-09-24T14:41:31;22.40;57.30
49511;DHT22;35413;48.776;9.204;2022-09-24T14:46:32;22.50;57.40
49511;DHT22;35413;48.776;9.204;2022-09-24T14:49:13;22.50;57.40
49511;DHT22;35413;48.776;9.204;2022-09-24T14:51:53;22.40;57.40
49511;DHT22;35413;48.776;9.204;2022-09-24T14:54:25;22.40;57.30
49511;DHT22;35413;48.776;9.204;2022-09-24T14:56:52;22.50;57.40
49511;DHT22;35413;48.776;9.204;2022-09-24T14:59:30;22.40;57.40
49511;DHT22;35413;48.776;9.204;2022-09-24T15:02:25;22.40;57.60
49511;DHT22;35413;48.776;9.204;2022-09-24T15:04:57;22.50;57.50
49511;DHT22;35413;48.776;9.204;2022-09-24T15:07:24;22.40;57.40
49511;DHT22;35413;48.776;9.204;2022-09-24T15:09:53;22.40;57.30
49511;DHT22;35413;48.776;9.204;2022-09-24T15:12:21;22.40;57.40
49511;DHT22;35413;48.776;9.204;2022-09-24T15:14:58;22.40;57.40
49511;DHT22;35413;48.776;9.204;2022-09-24T15:17:33;22.40;57.40
49511;DHT22;35413;48.776;9.204;2022-09-24T15:19:59;22.40;57.40
49511;DHT22;35413;48.776;9.204;2022-09-24T15:22:26;22.40;57.40
49511;DHT22;35413;48.776;9.204;2022-09-24T15:24:56;22.40;57.50
49511;DHT22;35413;48.776;9.204;2022-09-24T15:27:25;22.40;57.40
49511;DHT22;35413;48.776;9.204;2022-09-24T15:29:58;22.40;57.40
49511;DHT22;35413;48.776;9.204;2022-09-24T15:32:25;22.40;57.40
49511;DHT22;35413;48.776;9.204;2022-09-24T15:34:52;22.40;57.40
49511;DHT22;35413;48.776;9.204;2022-09-24T15:37:24;22.40;57.40
49511;DHT22;35413;48.776;9.204;2022-09-24T15:39:52;22.40;57.40
49511;DHT22;35413;48.776;9.204;2022-09-24T15:42:20;22.40;57.40
49511;DHT22;35413;48.776;9.204;2022-09-24T15:44:46;22.40;57.50
49511;DHT22;35413;48.776;9.204;2022-09-24T15:47:13;22.40;57.40
49511;DHT22;35413;48.776;9.204;2022-09-24T15:49:39;22.40;57.40
49511;DHT22;35413;48.776;9.204;2022-09-24T15:54:57;22.40;57.50
49511;DHT22;35413;48.776;9.204;2022-09-24T15:57:23;22.40;57.40
49511;DHT22;35413;48.776;9.204;2022-09-24T15:59:50;22.40;57.40
49511;DHT22;35413;48.776;9.204;2022-09-24T16:04:46;22.40;57.50
49511;DHT22;35413;48.776;9.204;2022-09-24T16:07:11;22.40;57.50
49511;DHT22;35413;48.776;9.204;2022-09-24T16:09:37;22.40;57.50
49511;DHT22;35413;48.776;9.204;2022-09-24T16:12:03;22.40;57.70
49511;DHT22;35413;48.776;9.204;2022-09-24T16:14:28;22.40;58.00
49511;DHT22;35413;48.776;9.204;2022-09-24T16:16:54;22.40;57.70
49511;DHT22;35413;48.776;9.204;2022-09-24T16:19:20;22.50;58.00
49511;DHT22;35413;48.776;9.204;2022-09-24T16:21:46;22.50;57.80
49511;DHT22;35413;48.776;9.204;2022-09-24T16:24:11;22.60;57.90
49511;DHT22;35413;48.776;9.204;2022-09-24T16:26:37;22.70;57.70
49511;DHT22;35413;48.776;9.204;2022-09-24T16:29:04;22.70;57.40
49511;DHT22;35413;48.776;9.204;2022-09-24T16:31:30;22.80;57.40
49511;DHT22;35413;48.776;9.204;2022-09-24T16:33:56;22.90;57.50
49511;DHT22;35413;48.776;9.204;2022-09-24T16:36:22;23.00;57.50
49511;DHT22;35413;48.776;9.204;2022-09-24T16:38:50;23.00;57.20
49511;DHT22;35413;48.776;9.204;2022-09-24T16:41:16;23.00;57.30
49511;DHT22;35413;48.776;9.204;2022-09-24T16:43:42;23.10;57.10
49511;DHT22;35413;48.776;9.204;2022-09-24T16:46:08;23.10;57.40
49511;DHT22;35413;48.776;9.204;2022-09-24T16:48:35;23.10;57.80
49511;DHT22;35413;48.776;9.204;2022-09-24T16:51:06;23.10;58.00
49511;DHT22;35413;48.776;9.204;2022-09-24T16:53:32;23.10;58.30
49511;DHT22;35413;48.776;9.204;2022-09-24T16:56:17;23.00;58.50
49511;DHT22;35413;48.776;9.204;2022-09-24T16:58:44;23.00;58.40
49511;DHT22;35413;48.776;9.204;2022-09-24T17:01:12;22.90;58.60
49511;DHT22;35413;48.776;9.204;2022-09-24T17:03:38;22.90;58.60
49511;DHT22;35413;48.776;9.204;2022-09-24T17:06:05;22.90;58.80
49511;DHT22;35413;48.776;9.204;2022-09-24T17:08:35;22.90;58.80
49511;DHT22;35413;48.776;9.204;2022-09-24T17:11:20;22.90;58.90
49511;DHT22;35413;48.776;9.204;2022-09-24T17:13:46;22.90;59.10
49511;DHT22;35413;48.776;9.204;2022-09-24T17:16:15;22.90;59.10
49511;DHT22;35413;48.776;9.204;2022-09-24T17:18:42;22.90;58.90
49511;DHT22;35413;48.776;9.204;2022-09-24T17:21:10;23.00;59.60
49511;DHT22;35413;48.776;9.204;2022-09-24T17:23:36;22.90;59.00
49511;DHT22;35413;48.776;9.204;2022-09-24T17:26:03;23.00;58.90
49511;DHT22;35413;48.776;9.204;2022-09-24T17:28:33;23.00;58.90
49511;DHT22;35413;48.776;9.204;2022-09-24T17:30:59;23.00;58.80
49511;DHT22;35413;48.776;9.204;2022-09-24T17:33:25;23.00;59.00
49511;DHT22;35413;48.776;9.204;2022-09-24T17:35:59;22.90;59.00
49511;DHT22;35413;48.776;9.204;2022-09-24T17:38:26;22.90;59.00
49511;DHT22;35413;48.776;9.204;2022-09-24T17:43:51;22.90;59.00
49511;DHT22;35413;48.776;9.204;2022-09-24T17:46:18;22.90;59.00